Pagrindinis puslapis
METAR-TAF:

METAR-TAF

Oro uostai :

Bandirma, Turkija

platuma: 40-19N, ilguma: 027-58E, Aukštis: 51 m

Dabartinis oras

Ataskaita buvo paskelbta 2 valandos ir 30 minutes, ne 20:43 UTC
Vėjas 1 kt iš Vakarų/Pietvakarių
Temperatūra 3°C
Drėgmė 100%
Slėgis 1017 hPa
Matomumas: 0350 m
Rūkas lopais

METAR: LTBG 042043Z 24001KT 0350 R36/0550D R18/P1500N BCFG NSC 03/03 Q1017 NOSIG RMK RWY18 23004KT

Laikas: 02:13 (23:13 UTC)

Prognozė

Ataskaita buvo paskelbta 3 valandos ir 33 minutes, ne 19:40 UTC
Prognozė galioja nuo 04 metu 21 UTC su 05 metu 06 UTC
Vėjas 2 kt nuo kintamojo kryptimis
Matomumas: 4000 m
rūkana
Tapsmas
nuo 04 metu 21 UTC su 04 metu 24 UTC
Matomumas: 0200 m
rūkas

TAF: LTBG 041940Z 0421/0506 VRB02KT 4000 BR NSC BECMG 0421/0424 0200 FG

Orai ataskaitas ir orų prognozės (METAR, TAF).

turimą stotys yra geltonos ir raudonos taškus žemėlapyje.

Perkelti pele per norėdami pamatyti stoties vardą.

Tada spustelėkite, norėdami matyti oro stebėjimo ir prognozės.

Norėdami pakeisti žemėlapį: spustelėkite ant žalios mygtukų su juodo kryžiaus žemyn,; žalią mygtuką su brūkšneliu, jei norite nutolinti; arba žalių rodyklių gretimoms žemėlapius.


METAR-TAF: